Time;durP1;ratioP1;P1;durP2;ratioP2;P2;SDS_P1;SDS_P2;PMS_P1;PMS_P2;Temp;Humidity;BMP_temperature;BMP_pressure;BME280_temperature;BME280_humidity;BME280_pressure;Samples;Min_cycle;Max_cycle;Signal;HPM_P1;HPM_P2
2021/11/25 00:00:05;;;;;;;42.17;21.70;;;;;;;;;;5030216;28;20491;-70
2021/11/25 00:02:30;;;;;;;42.30;20.63;;;;;;;;;;5029183;28;20068;-70
2021/11/25 00:04:55;;;;;;;43.10;20.35;;;;;;;;;;5021989;28;20060;-70
2021/11/25 00:07:21;;;;;;;43.50;20.60;;;;;;;;;;5026358;28;20085;-70
2021/11/25 00:09:47;;;;;;;41.90;20.70;;;;;;;;;;5028887;28;20028;-70
2021/11/25 00:12:13;;;;;;;46.45;21.23;;;;;;;;;;5028841;28;20437;-70
2021/11/25 00:14:39;;;;;;;43.58;20.85;;;;;;;;;;5021576;28;20500;-70
2021/11/25 00:17:04;;;;;;;47.50;21.95;;;;;;;;;;5028305;28;20053;-71
2021/11/25 00:19:30;;;;;;;50.88;24.85;;;;;;;;;;5028468;28;20048;-70
2021/11/25 00:21:55;;;;;;;49.53;23.50;;;;;;;;;;5028575;28;20507;-70
2021/11/25 00:24:20;;;;;;;50.08;23.27;;;;;;;;;;5027194;28;20028;-70
2021/11/25 00:26:45;;;;;;;44.97;21.70;;;;;;;;;;5023259;28;20507;-72
2021/11/25 00:29:11;;;;;;;45.58;22.95;;;;;;;;;;5024344;28;20021;-69
2021/11/25 00:31:36;;;;;;;45.25;21.52;;;;;;;;;;5027388;28;20104;-71
2021/11/25 00:34:02;;;;;;;48.38;22.80;;;;;;;;;;5024663;28;20022;-70
2021/11/25 00:36:27;;;;;;;46.28;22.38;;;;;;;;;;5027361;28;20033;-71
2021/11/25 00:38:52;;;;;;;49.53;22.73;;;;;;;;;;5027541;28;20025;-70
2021/11/25 00:41:18;;;;;;;49.13;22.55;;;;;;;;;;5025811;28;20033;-71
2021/11/25 00:43:43;;;;;;;47.50;21.85;;;;;;;;;;5023428;28;20084;-70
2021/11/25 00:46:08;;;;;;;48.05;22.80;;;;;;;;;;5024653;28;20110;-70
2021/11/25 00:48:34;;;;;;;48.80;23.45;;;;;;;;;;5028193;28;20025;-70
2021/11/25 00:50:59;;;;;;;53.03;22.77;;;;;;;;;;5025805;28;20125;-69
2021/11/25 00:53:24;;;;;;;49.67;23.13;;;;;;;;;;5028174;28;20210;-71
2021/11/25 00:55:50;;;;;;;45.65;22.50;;;;;;;;;;5027983;28;20029;-70
2021/11/25 00:58:17;;;;;;;47.58;21.88;;;;;;;;;;5023310;28;20463;-70
2021/11/25 01:00:42;;;;;;;45.75;22.35;;;;;;;;;;5023582;28;20029;-70
2021/11/25 01:03:07;;;;;;;47.45;22.00;;;;;;;;;;5028021;28;20100;-70
2021/11/25 01:05:33;;;;;;;45.95;21.90;;;;;;;;;;5020720;28;20128;-72
2021/11/25 01:07:58;;;;;;;46.33;21.00;;;;;;;;;;5021129;28;20873;-71
2021/11/25 01:10:23;;;;;;;50.67;22.80;;;;;;;;;;5025293;28;20033;-70
2021/11/25 01:12:50;;;;;;;45.38;21.38;;;;;;;;;;5027829;28;20032;-70
2021/11/25 01:15:16;;;;;;;52.08;22.70;;;;;;;;;;5019709;28;20026;-68
2021/11/25 01:17:42;;;;;;;53.10;23.58;;;;;;;;;;5022143;28;20045;-70
2021/11/25 01:20:09;;;;;;;49.15;22.65;;;;;;;;;;5024850;28;20034;-70
2021/11/25 01:22:35;;;;;;;49.15;23.08;;;;;;;;;;5021061;28;20031;-70
2021/11/25 01:25:00;;;;;;;54.30;23.77;;;;;;;;;;5027646;28;20033;-70
2021/11/25 01:27:25;;;;;;;47.03;22.63;;;;;;;;;;5022127;28;20033;-71
2021/11/25 01:29:51;;;;;;;46.55;22.70;;;;;;;;;;5028706;28;20104;-70
2021/11/25 01:32:16;;;;;;;52.20;24.88;;;;;;;;;;5030237;28;20392;-70
2021/11/25 01:34:41;;;;;;;49.03;22.25;;;;;;;;;;5026241;28;20061;-71
2021/11/25 01:37:07;;;;;;;49.70;23.08;;;;;;;;;;5023249;28;20034;-70
2021/11/25 01:39:32;;;;;;;54.50;24.45;;;;;;;;;;5022950;28;20018;-71
2021/11/25 01:41:58;;;;;;;54.63;24.27;;;;;;;;;;5030793;28;20029;-70
2021/11/25 01:44:23;;;;;;;48.35;22.65;;;;;;;;;;5022995;28;20563;-70
2021/11/25 01:46:48;;;;;;;53.45;23.90;;;;;;;;;;5030391;28;20029;-71
2021/11/25 01:49:13;;;;;;;53.40;24.45;;;;;;;;;;5030062;28;20059;-72
2021/11/25 01:51:39;;;;;;;56.20;24.90;;;;;;;;;;5022811;28;20072;-72
2021/11/25 01:54:04;;;;;;;52.70;24.67;;;;;;;;;;5031095;28;20036;-70
2021/11/25 01:56:29;;;;;;;47.70;22.92;;;;;;;;;;5028795;28;20025;-71
2021/11/25 01:58:55;;;;;;;43.22;21.27;;;;;;;;;;5027917;28;20039;-71
2021/11/25 02:01:21;;;;;;;47.30;23.15;;;;;;;;;;5030165;28;20036;-71
2021/11/25 02:03:48;;;;;;;40.38;20.63;;;;;;;;;;5029636;28;20108;-70
2021/11/25 02:06:14;;;;;;;43.03;21.35;;;;;;;;;;5027110;28;20103;-70
2021/11/25 02:08:40;;;;;;;42.00;21.48;;;;;;;;;;5018996;28;20029;-70
2021/11/25 02:11:05;;;;;;;43.67;22.40;;;;;;;;;;5024968;28;20044;-71
2021/11/25 02:13:30;;;;;;;43.47;21.10;;;;;;;;;;5026441;28;20025;-71
2021/11/25 02:15:56;;;;;;;42.92;21.42;;;;;;;;;;5027125;28;20033;-70
2021/11/25 02:18:22;;;;;;;52.17;23.67;;;;;;;;;;5030414;28;20020;-72
2021/11/25 02:20:49;;;;;;;47.42;23.55;;;;;;;;;;5029384;28;20040;-70
2021/11/25 02:23:15;;;;;;;50.00;23.48;;;;;;;;;;5030015;28;20433;-70
2021/11/25 02:25:41;;;;;;;52.15;23.80;;;;;;;;;;5026869;28;20082;-70
2021/11/25 02:28:07;;;;;;;51.22;24.17;;;;;;;;;;5030939;28;20476;-71
2021/11/25 02:30:32;;;;;;;45.97;21.23;;;;;;;;;;5029691;28;20457;-70
2021/11/25 02:32:57;;;;;;;46.20;22.48;;;;;;;;;;5030412;28;20025;-71
2021/11/25 02:35:27;;;;;;;44.70;21.30;;;;;;;;;;5026793;28;20075;-70
2021/11/25 02:37:53;;;;;;;44.95;20.60;;;;;;;;;;5027458;28;20025;-71
2021/11/25 02:40:21;;;;;;;43.30;20.92;;;;;;;;;;5031172;28;20105;-71
2021/11/25 02:42:52;;;;;;;45.15;21.95;;;;;;;;;;5028318;28;20021;-70
2021/11/25 02:45:17;;;;;;;50.13;24.27;;;;;;;;;;5029055;28;20053;-71
2021/11/25 02:47:43;;;;;;;49.72;22.80;;;;;;;;;;5027339;28;20426;-71
2021/11/25 02:50:08;;;;;;;45.22;21.42;;;;;;;;;;5030309;28;20075;-72
2021/11/25 02:52:38;;;;;;;68.63;23.25;;;;;;;;;;5026928;28;20037;-71
2021/11/25 02:55:03;;;;;;;45.88;21.90;;;;;;;;;;5031256;28;20083;-70
2021/11/25 02:57:32;;;;;;;50.45;23.02;;;;;;;;;;5029496;28;20485;-70
2021/11/25 02:59:57;;;;;;;50.28;23.10;;;;;;;;;;5027990;28;20018;-71
2021/11/25 03:02:23;;;;;;;50.40;23.02;;;;;;;;;;5030271;28;20048;-70
2021/11/25 03:04:48;;;;;;;50.28;22.55;;;;;;;;;;5027334;28;20413;-71
2021/11/25 03:07:13;;;;;;;51.15;23.10;;;;;;;;;;5019210;28;20088;-70
2021/11/25 03:09:38;;;;;;;58.42;23.27;;;;;;;;;;5029631;28;20021;-71
2021/11/25 03:12:04;;;;;;;49.92;23.20;;;;;;;;;;5028248;28;20045;-72
2021/11/25 03:14:29;;;;;;;53.63;23.20;;;;;;;;;;5021717;28;20026;-71
2021/11/25 03:16:54;;;;;;;47.60;22.55;;;;;;;;;;5029548;28;20112;-71
2021/11/25 03:19:19;;;;;;;48.10;21.52;;;;;;;;;;5024468;28;20017;-71
2021/11/25 03:21:45;;;;;;;45.83;21.35;;;;;;;;;;5027291;28;20032;-70
2021/11/25 03:24:10;;;;;;;52.83;22.58;;;;;;;;;;5029131;28;20021;-72
2021/11/25 03:26:35;;;;;;;43.47;21.50;;;;;;;;;;5030053;28;20462;-71
2021/11/25 03:29:00;;;;;;;42.15;20.60;;;;;;;;;;5029492;28;20103;-71
2021/11/25 03:31:28;;;;;;;41.45;21.05;;;;;;;;;;5033522;28;20354;-70
2021/11/25 03:33:54;;;;;;;51.03;21.95;;;;;;;;;;5029351;28;20026;-71
2021/11/25 03:36:19;;;;;;;49.60;20.70;;;;;;;;;;5028416;28;20071;-70
2021/11/25 03:38:44;;;;;;;48.80;21.77;;;;;;;;;;5029712;28;20018;-70
2021/11/25 03:41:11;;;;;;;53.70;21.70;;;;;;;;;;5024074;28;20033;-71
2021/11/25 03:43:36;;;;;;;42.67;20.27;;;;;;;;;;5028020;28;20385;-71
2021/11/25 03:46:02;;;;;;;44.55;21.75;;;;;;;;;;5026021;28;20017;-71
2021/11/25 03:48:30;;;;;;;43.85;21.33;;;;;;;;;;5029344;28;20025;-70
2021/11/25 03:50:57;;;;;;;41.97;19.88;;;;;;;;;;5028027;28;20034;-70
2021/11/25 03:53:22;;;;;;;45.47;20.58;;;;;;;;;;5029481;28;20021;-70
2021/11/25 03:55:47;;;;;;;45.00;20.63;;;;;;;;;;5027573;28;20021;-70
2021/11/25 03:58:12;;;;;;;52.50;22.42;;;;;;;;;;5027190;28;20041;-71
2021/11/25 04:00:38;;;;;;;48.13;22.15;;;;;;;;;;5029595;28;20095;-71
2021/11/25 04:03:04;;;;;;;53.83;23.20;;;;;;;;;;5026306;28;20021;-71
2021/11/25 04:05:30;;;;;;;45.90;20.98;;;;;;;;;;5021958;28;20504;-69
2021/11/25 04:07:55;;;;;;;49.08;22.20;;;;;;;;;;5026984;28;20058;-70
2021/11/25 04:10:20;;;;;;;45.70;21.08;;;;;;;;;;5028678;28;20028;-69
2021/11/25 04:12:46;;;;;;;50.05;22.33;;;;;;;;;;5027615;28;20053;-70
2021/11/25 04:15:12;;;;;;;43.38;20.65;;;;;;;;;;5027483;28;20033;-70
2021/11/25 04:17:37;;;;;;;45.70;20.10;;;;;;;;;;5026060;28;20672;-71
2021/11/25 04:20:04;;;;;;;42.63;19.38;;;;;;;;;;5022575;28;20022;-70
2021/11/25 04:22:29;;;;;;;42.95;19.42;;;;;;;;;;5028758;28;20382;-71
2021/11/25 04:24:55;;;;;;;37.67;18.08;;;;;;;;;;5026952;28;20040;-70
2021/11/25 04:27:21;;;;;;;37.15;17.40;;;;;;;;;;5017918;28;20030;-70
2021/11/25 04:29:57;;;;;;;41.70;18.70;;;;;;;;;;5028971;28;20025;-70
2021/11/25 04:37:50;;;;;;;41.72;18.55;;;;;;;;;;5028175;28;20084;-70
2021/11/25 04:40:16;;;;;;;34.85;17.35;;;;;;;;;;5024766;28;20461;-71
2021/11/25 04:42:41;;;;;;;40.03;18.40;;;;;;;;;;5022392;28;20033;-69
2021/11/25 04:45:06;;;;;;;38.28;18.08;;;;;;;;;;5028830;28;20018;-71
2021/11/25 04:47:32;;;;;;;35.10;17.70;;;;;;;;;;5028901;28;20076;-70
2021/11/25 04:49:57;;;;;;;39.00;18.58;;;;;;;;;;5025444;28;20021;-70
2021/11/25 04:52:22;;;;;;;38.60;18.77;;;;;;;;;;5024533;28;20037;-70
2021/11/25 04:54:48;;;;;;;37.78;18.58;;;;;;;;;;5021201;28;20061;-71
2021/11/25 04:57:13;;;;;;;42.75;19.73;;;;;;;;;;5027293;28;20108;-72
2021/11/25 04:59:38;;;;;;;35.72;17.85;;;;;;;;;;5029242;28;20017;-70
2021/11/25 05:02:04;;;;;;;41.53;18.35;;;;;;;;;;5030253;28;20032;-70
2021/11/25 05:04:29;;;;;;;42.03;19.20;;;;;;;;;;5024611;28;20086;-70
2021/11/25 05:06:54;;;;;;;41.60;18.50;;;;;;;;;;5024556;28;20050;-71
2021/11/25 05:09:20;;;;;;;47.08;18.65;;;;;;;;;;5027030;28;20021;-71
2021/11/25 05:11:45;;;;;;;38.13;17.70;;;;;;;;;;5027800;28;20049;-71
2021/11/25 05:14:10;;;;;;;44.92;20.65;;;;;;;;;;5031603;28;20033;-70
2021/11/25 05:16:35;;;;;;;42.30;19.13;;;;;;;;;;5034428;28;20040;-70
2021/11/25 05:19:01;;;;;;;42.85;20.13;;;;;;;;;;5031054;28;20036;-70
2021/11/25 05:21:26;;;;;;;41.65;19.27;;;;;;;;;;5026481;28;20056;-71
2021/11/25 05:23:51;;;;;;;42.50;19.85;;;;;;;;;;5033292;28;20048;-71
2021/11/25 05:26:16;;;;;;;42.05;18.92;;;;;;;;;;5032257;28;20026;-71
2021/11/25 05:28:42;;;;;;;42.28;19.90;;;;;;;;;;5028177;28;20030;-71
2021/11/25 05:31:07;;;;;;;43.25;19.85;;;;;;;;;;5030675;28;20456;-70
2021/11/25 05:33:32;;;;;;;42.88;20.33;;;;;;;;;;5027409;28;20036;-71
2021/11/25 05:35:58;;;;;;;45.83;20.27;;;;;;;;;;5032334;28;20021;-70
2021/11/25 05:38:23;;;;;;;43.38;20.02;;;;;;;;;;5028088;28;20496;-72
2021/11/25 05:40:48;;;;;;;44.35;19.85;;;;;;;;;;5030751;28;20535;-71
2021/11/25 05:43:13;;;;;;;44.42;20.73;;;;;;;;;;5030020;28;20484;-72
2021/11/25 05:45:39;;;;;;;41.53;19.25;;;;;;;;;;5033719;28;20021;-71
2021/11/25 05:48:04;;;;;;;43.78;20.00;;;;;;;;;;5024980;28;20060;-71
2021/11/25 05:50:29;;;;;;;40.85;18.85;;;;;;;;;;5030401;28;20503;-70
2021/11/25 05:52:56;;;;;;;40.20;19.35;;;;;;;;;;5033637;28;20025;-70
2021/11/25 05:55:24;;;;;;;42.57;18.50;;;;;;;;;;5033919;28;20104;-70
2021/11/25 05:57:49;;;;;;;40.22;18.75;;;;;;;;;;5032938;28;20047;-70
2021/11/25 06:00:14;;;;;;;50.75;20.45;;;;;;;;;;5032395;28;20140;-69
2021/11/25 06:02:41;;;;;;;45.58;20.17;;;;;;;;;;5030874;28;20116;-69
2021/11/25 06:05:06;;;;;;;50.58;20.83;;;;;;;;;;5027731;28;20428;-71
2021/11/25 06:07:31;;;;;;;42.20;18.92;;;;;;;;;;5033707;28;20056;-70
2021/11/25 06:09:56;;;;;;;42.65;18.50;;;;;;;;;;5032072;28;20124;-71
2021/11/25 06:12:22;;;;;;;44.50;19.80;;;;;;;;;;5031850;28;20146;-72
2021/11/25 06:14:47;;;;;;;40.55;18.75;;;;;;;;;;5034630;28;20030;-71
2021/11/25 06:17:12;;;;;;;41.35;18.73;;;;;;;;;;5030118;28;20052;-71
2021/11/25 06:19:37;;;;;;;35.47;17.30;;;;;;;;;;5024111;28;20029;-70
2021/11/25 06:22:03;;;;;;;42.33;18.60;;;;;;;;;;5028549;28;20077;-71
2021/11/25 06:24:28;;;;;;;41.35;18.92;;;;;;;;;;5029117;28;20021;-71
2021/11/25 06:26:54;;;;;;;39.13;18.55;;;;;;;;;;5028996;28;20037;-71
2021/11/25 06:29:19;;;;;;;36.90;17.45;;;;;;;;;;5030738;28;20030;-70
2021/11/25 06:31:44;;;;;;;41.47;18.70;;;;;;;;;;5030767;28;20103;-71
2021/11/25 06:34:11;;;;;;;40.13;17.55;;;;;;;;;;5029056;28;20400;-72
2021/11/25 06:36:36;;;;;;;37.92;16.65;;;;;;;;;;5029776;28;20056;-72
2021/11/25 06:39:02;;;;;;;38.75;17.98;;;;;;;;;;5030855;28;20121;-71
2021/11/25 06:41:27;;;;;;;40.45;18.05;;;;;;;;;;5031125;28;20083;-71
2021/11/25 06:43:52;;;;;;;41.08;17.98;;;;;;;;;;5026770;28;20021;-71
2021/11/25 06:46:17;;;;;;;40.03;18.75;;;;;;;;;;5028028;28;20583;-71
2021/11/25 06:48:42;;;;;;;41.47;18.52;;;;;;;;;;5030488;28;20649;-72
2021/11/25 06:51:08;;;;;;;50.97;20.73;;;;;;;;;;5033263;28;20429;-71
2021/11/25 06:53:33;;;;;;;40.90;18.40;;;;;;;;;;5029020;28;20469;-71
2021/11/25 06:55:58;;;;;;;39.05;17.75;;;;;;;;;;5030924;28;20084;-72
2021/11/25 06:58:23;;;;;;;40.72;18.52;;;;;;;;;;5031229;28;20535;-72
2021/11/25 07:00:49;;;;;;;41.50;18.75;;;;;;;;;;5031056;28;20056;-71
2021/11/25 07:03:14;;;;;;;40.25;18.20;;;;;;;;;;5030759;28;20053;-71
2021/11/25 07:05:39;;;;;;;46.25;21.08;;;;;;;;;;5028592;28;20033;-71
2021/11/25 07:08:05;;;;;;;40.83;18.27;;;;;;;;;;5026887;28;20080;-71
2021/11/25 07:10:32;;;;;;;45.22;19.40;;;;;;;;;;5022668;28;20025;-71
2021/11/25 07:12:57;;;;;;;37.90;18.23;;;;;;;;;;5023093;28;20029;-65
2021/11/25 07:15:23;;;;;;;39.08;18.95;;;;;;;;;;5026438;28;20036;-68
2021/11/25 07:17:49;;;;;;;42.25;19.23;;;;;;;;;;5030212;28;20048;-68
2021/11/25 07:20:14;;;;;;;40.70;18.08;;;;;;;;;;5029952;28;20052;-67
2021/11/25 07:22:40;;;;;;;39.33;18.23;;;;;;;;;;5027386;28;20543;-67
2021/11/25 07:25:09;;;;;;;38.13;17.40;;;;;;;;;;5028229;28;20029;-67
2021/11/25 07:27:34;;;;;;;34.60;17.20;;;;;;;;;;5029684;28;20044;-67
2021/11/25 07:29:59;;;;;;;35.10;17.65;;;;;;;;;;5027264;28;20541;-68
2021/11/25 07:32:25;;;;;;;33.70;17.25;;;;;;;;;;5029111;28;20034;-68
2021/11/25 07:34:50;;;;;;;35.13;17.15;;;;;;;;;;5030151;28;20080;-67
2021/11/25 07:37:17;;;;;;;35.45;16.60;;;;;;;;;;5028488;28;20029;-68
2021/11/25 07:39:43;;;;;;;34.75;17.83;;;;;;;;;;5029807;28;20075;-67
2021/11/25 07:42:08;;;;;;;32.50;16.65;;;;;;;;;;5029977;28;20033;-67
2021/11/25 07:44:33;;;;;;;32.17;16.38;;;;;;;;;;5029694;28;20112;-66
2021/11/25 07:46:58;;;;;;;36.13;17.15;;;;;;;;;;5027935;28;20045;-67
2021/11/25 07:49:24;;;;;;;32.30;15.85;;;;;;;;;;5029347;28;20110;-67
2021/11/25 07:51:49;;;;;;;29.15;15.10;;;;;;;;;;5025309;28;20064;-66
2021/11/25 07:54:15;;;;;;;36.65;17.30;;;;;;;;;;5029792;28;20589;-67
2021/11/25 07:56:41;;;;;;;34.38;16.40;;;;;;;;;;5021797;28;20343;-66
2021/11/25 07:59:06;;;;;;;31.95;15.73;;;;;;;;;;5027611;28;20029;-67
2021/11/25 08:01:32;;;;;;;33.70;16.60;;;;;;;;;;5022843;28;20038;-66
2021/11/25 08:03:57;;;;;;;31.85;16.17;;;;;;;;;;5029085;28;20022;-67
2021/11/25 08:06:22;;;;;;;37.20;17.15;;;;;;;;;;5025774;28;20096;-67
2021/11/25 08:08:48;;;;;;;37.60;17.75;;;;;;;;;;5024984;28;20038;-65
2021/11/25 08:11:13;;;;;;;34.58;17.27;;;;;;;;;;5021392;28;20045;-62
2021/11/25 08:13:38;;;;;;;35.53;17.23;;;;;;;;;;5024958;28;20036;-62
2021/11/25 08:16:04;;;;;;;33.63;17.30;;;;;;;;;;5027228;28;20488;-63
2021/11/25 08:18:29;;;;;;;36.50;17.38;;;;;;;;;;5024835;28;20021;-63
2021/11/25 08:20:54;;;;;;;38.45;18.25;;;;;;;;;;5028956;28;20052;-62
2021/11/25 08:23:19;;;;;;;36.03;18.02;;;;;;;;;;5029303;28;20029;-63
2021/11/25 08:25:44;;;;;;;31.40;17.15;;;;;;;;;;5029324;28;20029;-63
2021/11/25 08:28:10;;;;;;;32.40;16.55;;;;;;;;;;5028796;28;20020;-61
2021/11/25 08:30:35;;;;;;;32.80;16.67;;;;;;;;;;5030708;28;20492;-63
2021/11/25 08:33:01;;;;;;;30.55;15.82;;;;;;;;;;5028476;28;20079;-62
2021/11/25 08:35:26;;;;;;;35.60;16.60;;;;;;;;;;5028649;28;20454;-62
2021/11/25 08:37:52;;;;;;;34.30;17.00;;;;;;;;;;5028801;28;20021;-62
2021/11/25 08:40:18;;;;;;;33.17;16.23;;;;;;;;;;5024721;28;20574;-62
2021/11/25 08:42:44;;;;;;;30.42;15.68;;;;;;;;;;5018317;28;20022;-62
2021/11/25 08:45:10;;;;;;;35.35;17.55;;;;;;;;;;5028615;28;20458;-62
2021/11/25 08:47:36;;;;;;;35.28;16.80;;;;;;;;;;5028322;28;20036;-63
2021/11/25 08:50:01;;;;;;;32.22;16.27;;;;;;;;;;5028380;28;20061;-63
2021/11/25 08:52:26;;;;;;;30.48;15.98;;;;;;;;;;5027286;28;20072;-62
2021/11/25 08:54:52;;;;;;;27.88;15.07;;;;;;;;;;5028753;28;20104;-62
2021/11/25 08:57:17;;;;;;;30.05;15.05;;;;;;;;;;5028669;28;20076;-62
2021/11/25 08:59:43;;;;;;;31.23;16.10;;;;;;;;;;5028383;28;20022;-62
2021/11/25 09:02:09;;;;;;;31.45;15.57;;;;;;;;;;5020386;28;20032;-62
2021/11/25 09:04:34;;;;;;;32.58;15.63;;;;;;;;;;5028334;28;20028;-62
2021/11/25 09:07:00;;;;;;;31.33;16.00;;;;;;;;;;5028391;28;20049;-62
2021/11/25 09:09:25;;;;;;;32.03;16.33;;;;;;;;;;5028707;28;20018;-62
2021/11/25 09:11:50;;;;;;;28.73;14.52;;;;;;;;;;5026791;28;20045;-61
2021/11/25 09:14:15;;;;;;;29.92;15.85;;;;;;;;;;5027373;28;20026;-62
2021/11/25 09:16:41;;;;;;;28.92;15.23;;;;;;;;;;5027982;28;20064;-63
2021/11/25 09:19:06;;;;;;;28.20;14.90;;;;;;;;;;5028499;28;20139;-63
2021/11/25 09:21:32;;;;;;;32.45;15.25;;;;;;;;;;5027124;28;20033;-63
2021/11/25 09:23:58;;;;;;;29.63;16.02;;;;;;;;;;5026556;28;20477;-62
2021/11/25 09:26:23;;;;;;;30.05;15.82;;;;;;;;;;5028195;28;20022;-63
2021/11/25 09:28:48;;;;;;;29.13;15.52;;;;;;;;;;5028537;28;20113;-63
2021/11/25 09:31:15;;;;;;;30.17;15.60;;;;;;;;;;5028310;28;20445;-63
2021/11/25 09:33:42;;;;;;;29.95;15.32;;;;;;;;;;5027754;28;20029;-62
2021/11/25 09:36:07;;;;;;;31.88;15.43;;;;;;;;;;5025635;28;20059;-62
2021/11/25 09:38:32;;;;;;;27.05;15.40;;;;;;;;;;5028218;28;20838;-63
2021/11/25 09:40:58;;;;;;;30.33;15.10;;;;;;;;;;5028587;28;20040;-63
2021/11/25 09:43:25;;;;;;;27.67;15.27;;;;;;;;;;5028124;28;20029;-63
2021/11/25 09:45:50;;;;;;;28.70;15.02;;;;;;;;;;5021397;28;20048;-62
2021/11/25 09:48:16;;;;;;;28.67;14.70;;;;;;;;;;5028104;28;20029;-62
2021/11/25 09:50:46;;;;;;;26.58;13.95;;;;;;;;;;5028044;28;20025;-62
2021/11/25 09:53:13;;;;;;;27.23;14.30;;;;;;;;;;5028415;28;20066;-61
2021/11/25 09:55:40;;;;;;;26.17;14.45;;;;;;;;;;5027213;28;20025;-63
2021/11/25 09:58:05;;;;;;;24.25;14.48;;;;;;;;;;5028584;28;20033;-62
2021/11/25 10:00:34;;;;;;;22.90;12.75;;;;;;;;;;5030831;28;20025;-62
2021/11/25 10:03:00;;;;;;;26.80;14.07;;;;;;;;;;5032007;28;20615;-63
2021/11/25 10:05:26;;;;;;;25.60;13.90;;;;;;;;;;5019493;28;20104;-62
2021/11/25 10:07:51;;;;;;;30.52;14.43;;;;;;;;;;5030106;28;20057;-65
2021/11/25 10:10:32;;;;;;;25.65;14.30;;;;;;;;;;5031720;28;20442;-63
2021/11/25 10:13:02;;;;;;;24.90;14.35;;;;;;;;;;5025981;28;20140;-62
2021/11/25 10:15:35;;;;;;;27.65;14.20;;;;;;;;;;5031779;28;20380;-62
2021/11/25 10:18:02;;;;;;;24.98;14.15;;;;;;;;;;5027260;28;20036;-62
2021/11/25 10:20:38;;;;;;;25.00;14.75;;;;;;;;;;5031637;28;20437;-62
2021/11/25 10:23:04;;;;;;;23.65;13.73;;;;;;;;;;5031714;28;20358;-64
2021/11/25 10:25:41;;;;;;;27.60;15.82;;;;;;;;;;5031602;28;20112;-63
2021/11/25 10:28:07;;;;;;;23.23;13.88;;;;;;;;;;5029740;28;20017;-64
2021/11/25 10:30:36;;;;;;;25.17;14.00;;;;;;;;;;5031279;28;20020;-63
2021/11/25 10:33:01;;;;;;;24.70;14.23;;;;;;;;;;5030474;28;20393;-62
2021/11/25 10:35:33;;;;;;;23.25;13.88;;;;;;;;;;5031179;28;20029;-63
2021/11/25 10:40:34;;;;;;;24.35;13.60;;;;;;;;;;5029195;28;20025;-62
2021/11/25 10:43:15;;;;;;;23.55;13.48;;;;;;;;;;5031427;28;20017;-62
2021/11/25 10:45:44;;;;;;;21.13;12.25;;;;;;;;;;5030663;28;20056;-63
2021/11/25 10:48:10;;;;;;;27.45;12.77;;;;;;;;;;5017742;28;20052;-62
2021/11/25 10:50:35;;;;;;;23.13;12.68;;;;;;;;;;5029667;28;20033;-62
2021/11/25 10:53:04;;;;;;;23.27;13.73;;;;;;;;;;5031027;28;20382;-63
2021/11/25 10:55:30;;;;;;;23.95;13.32;;;;;;;;;;5030756;28;20017;-61
2021/11/25 10:57:58;;;;;;;23.20;13.35;;;;;;;;;;5030445;28;20024;-63
2021/11/25 11:00:25;;;;;;;21.63;12.57;;;;;;;;;;5030659;28;20014;-62
2021/11/25 11:03:09;;;;;;;21.88;12.70;;;;;;;;;;5030001;28;20027;-62
2021/11/25 11:05:47;;;;;;;22.63;13.65;;;;;;;;;;5025115;28;20101;-63
2021/11/25 11:08:13;;;;;;;24.17;13.38;;;;;;;;;;5029178;28;20507;-62
2021/11/25 11:10:48;;;;;;;24.52;14.63;;;;;;;;;;5030158;28;20057;-63
2021/11/25 11:13:21;;;;;;;22.98;13.50;;;;;;;;;;5030705;28;20384;-63
2021/11/25 11:15:54;;;;;;;28.48;15.07;;;;;;;;;;5030221;28;20033;-63
2021/11/25 11:21:35;;;;;;;28.80;16.40;;;;;;;;;;5030309;28;20479;-63
2021/11/25 11:24:02;;;;;;;26.58;14.77;;;;;;;;;;5029874;28;20021;-63
2021/11/25 11:26:27;;;;;;;28.52;15.45;;;;;;;;;;5030315;28;20491;-63
2021/11/25 11:28:53;;;;;;;30.90;16.10;;;;;;;;;;5029951;28;20026;-62
2021/11/25 11:31:18;;;;;;;31.65;16.35;;;;;;;;;;5030003;28;20038;-62
2021/11/25 11:33:44;;;;;;;25.15;14.77;;;;;;;;;;5029970;28;20017;-62
2021/11/25 11:36:09;;;;;;;27.35;15.20;;;;;;;;;;5025715;28;20103;-61
2021/11/25 11:38:35;;;;;;;25.20;15.85;;;;;;;;;;5029689;28;20079;-62
2021/11/25 11:41:01;;;;;;;28.38;15.75;;;;;;;;;;5030261;28;20021;-63
2021/11/25 11:43:26;;;;;;;28.10;15.82;;;;;;;;;;5029531;28;20036;-62
2021/11/25 11:45:51;;;;;;;30.83;16.67;;;;;;;;;;5028018;28;20029;-62
2021/11/25 11:48:17;;;;;;;25.70;15.27;;;;;;;;;;5029686;28;20097;-62
2021/11/25 11:50:50;;;;;;;29.67;17.35;;;;;;;;;;5029459;28;20022;-62
2021/11/25 11:53:22;;;;;;;31.30;16.67;;;;;;;;;;5029685;28;20029;-64
2021/11/25 11:55:47;;;;;;;23.80;14.27;;;;;;;;;;5028300;28;20124;-62
2021/11/25 11:58:27;;;;;;;28.63;15.93;;;;;;;;;;5027585;28;20121;-62
2021/11/25 12:00:54;;;;;;;31.40;16.10;;;;;;;;;;5029682;28;20021;-61
2021/11/25 12:03:49;;;;;;;26.25;15.40;;;;;;;;;;5029497;28;20017;-62
2021/11/25 12:06:37;;;;;;;31.77;16.23;;;;;;;;;;5007047;28;20196;-62
2021/11/25 12:09:22;;;;;;;28.42;16.15;;;;;;;;;;5006567;28;20030;-63
2021/11/25 12:11:49;;;;;;;26.83;15.18;;;;;;;;;;5003133;28;20050;-63
2021/11/25 12:14:16;;;;;;;27.05;15.45;;;;;;;;;;5006899;28;20078;-63
2021/11/25 12:16:50;;;;;;;27.85;15.70;;;;;;;;;;5006448;28;20034;-62
2021/11/25 12:19:22;;;;;;;29.75;15.73;;;;;;;;;;4996461;28;20022;-63
2021/11/25 12:21:48;;;;;;;29.17;15.98;;;;;;;;;;5006455;28;20068;-63
2021/11/25 12:24:29;;;;;;;26.90;14.65;;;;;;;;;;5006488;28;20113;-62
2021/11/25 12:26:59;;;;;;;30.95;16.70;;;;;;;;;;5006568;28;20063;-63
2021/11/25 12:29:33;;;;;;;31.77;15.93;;;;;;;;;;5002894;28;20042;-63
2021/11/25 12:33:01;;;;;;;30.80;15.43;;;;;;;;;;5006443;28;20101;-62
2021/11/25 12:35:26;;;;;;;33.42;17.30;;;;;;;;;;4997406;28;20104;-63
2021/11/25 12:37:58;;;;;;;31.63;16.42;;;;;;;;;;5006485;28;20438;-63
2021/11/25 12:40:23;;;;;;;31.45;15.82;;;;;;;;;;5004752;28;20053;-62
2021/11/25 12:43:03;;;;;;;33.38;17.08;;;;;;;;;;5018594;28;20811;-62
2021/11/25 12:45:28;;;;;;;31.02;16.75;;;;;;;;;;5028839;28;20053;-63
2021/11/25 12:48:10;;;;;;;32.72;16.83;;;;;;;;;;5028717;28;20082;-63
2021/11/25 12:50:37;;;;;;;33.20;17.83;;;;;;;;;;5020614;28;20420;-62
2021/11/25 12:53:08;;;;;;;31.50;16.73;;;;;;;;;;5028514;28;20047;-63
2021/11/25 12:55:33;;;;;;;31.75;17.50;;;;;;;;;;5028139;28;20100;-63
2021/11/25 12:57:58;;;;;;;31.27;16.92;;;;;;;;;;5028534;28;20100;-62
2021/11/25 13:00:25;;;;;;;31.90;17.20;;;;;;;;;;5024641;28;20033;-63
2021/11/25 13:03:09;;;;;;;30.88;16.48;;;;;;;;;;5022048;28;20096;-63
2021/11/25 13:05:35;;;;;;;32.55;17.88;;;;;;;;;;5023793;28;20017;-63
2021/11/25 13:08:03;;;;;;;30.67;17.40;;;;;;;;;;5028306;28;20084;-63
2021/11/25 13:10:30;;;;;;;29.05;16.08;;;;;;;;;;5028075;28;20024;-64
2021/11/25 13:13:12;;;;;;;31.13;16.83;;;;;;;;;;5024352;28;20045;-62
2021/11/25 13:15:38;;;;;;;32.13;17.05;;;;;;;;;;5028695;28;20013;-63
2021/11/25 13:18:04;;;;;;;33.28;17.13;;;;;;;;;;5028218;28;20116;-62
2021/11/25 13:20:42;;;;;;;31.77;16.20;;;;;;;;;;5027709;28;20473;-62
2021/11/25 13:23:07;;;;;;;31.00;16.67;;;;;;;;;;5026079;28;20076;-63
2021/11/25 13:25:32;;;;;;;31.10;15.63;;;;;;;;;;5028217;28;20017;-62
2021/11/25 13:27:58;;;;;;;29.83;16.20;;;;;;;;;;5028387;28;20104;-63
2021/11/25 13:30:23;;;;;;;28.95;15.98;;;;;;;;;;5031606;28;20030;-63
2021/11/25 13:32:50;;;;;;;32.65;16.80;;;;;;;;;;5017662;28;20033;-63
2021/11/25 13:35:16;;;;;;;30.55;16.00;;;;;;;;;;5030327;28;20104;-63
2021/11/25 13:37:43;;;;;;;31.60;16.20;;;;;;;;;;5030565;28;20048;-63
2021/11/25 13:40:10;;;;;;;30.80;16.70;;;;;;;;;;5032179;28;20021;-62
2021/11/25 13:42:40;;;;;;;33.00;16.85;;;;;;;;;;5030862;28;20033;-63
2021/11/25 13:45:07;;;;;;;30.77;16.70;;;;;;;;;;5031683;28;20108;-62
2021/11/25 13:47:33;;;;;;;32.08;16.92;;;;;;;;;;5032134;28;20029;-62
2021/11/25 13:50:05;;;;;;;32.17;16.48;;;;;;;;;;5031865;28;20648;-63
2021/11/25 13:52:30;;;;;;;34.97;16.75;;;;;;;;;;5031377;28;20072;-62
2021/11/25 13:54:56;;;;;;;30.92;15.63;;;;;;;;;;5025210;28;20053;-63
2021/11/25 13:57:21;;;;;;;29.35;15.60;;;;;;;;;;5031709;28;20071;-62
2021/11/25 13:59:47;;;;;;;29.08;15.77;;;;;;;;;;5031532;28;20029;-63
2021/11/25 14:02:20;;;;;;;31.92;15.77;;;;;;;;;;5030140;28;20023;-63
2021/11/25 14:04:52;;;;;;;30.08;16.05;;;;;;;;;;5026745;28;20381;-63
2021/11/25 14:07:17;;;;;;;31.30;16.05;;;;;;;;;;5027526;28;20046;-63
2021/11/25 14:09:43;;;;;;;26.52;14.20;;;;;;;;;;5031745;28;20148;-63
2021/11/25 14:12:12;;;;;;;29.92;15.98;;;;;;;;;;5031533;28;20113;-63
2021/11/25 14:14:41;;;;;;;31.38;16.23;;;;;;;;;;5026437;28;20101;-63
2021/11/25 14:17:09;;;;;;;31.58;15.93;;;;;;;;;;5027177;28;20017;-63
2021/11/25 14:19:35;;;;;;;28.45;14.80;;;;;;;;;;5024736;28;20390;-62
2021/11/25 14:22:00;;;;;;;31.77;15.55;;;;;;;;;;5022399;28;20030;-63
2021/11/25 14:24:26;;;;;;;28.30;15.05;;;;;;;;;;5023618;28;20025;-62